aviador You're here:

KAAF Decoded Metar

APALACHICOLA in FL, USA
Report Time2017-03-23 03:53:00
UTC Time2017-03-23 04:21:55
Flight Rules vfr VFR
Wind330° at 07 kt
W.Decomp.*RWY 32: 6.8 kt HW 1.6 kt RCW
RWY 36: 6.2 kt HW 3.2 kt LCW
RWY 06: 0.4 kt HW 7 kt LCW
W.Rank330° ranks 23
Current wind is above 330° avg. (6.4)
Visibility9999 m
Phenomena:N/A
Clouds:Few 090 Hf
Expected CloudBase > 1,200 ft AGL from Temp-Dew spread
CeilingNone
Temp20°C (ISA +5)
Dew Point17°C (83% RH)
AAT19.9°C
QNH1020 hPa
Density Alt627 ft
Elevation16 ft
Report Wrong Elevation
Raw Report
KAAF 230353Z AUTO 33007KT 10SM FEW090 20/17 A3013=

Extra information for KAAF:More info

Metar Taf Metar & Taf Last 4 Metars F.Rules Stats Wind Profile Meteogram Temp Stats Airport Information Weather charts Add Link Nearby VenuesMetar ALERT Operation Metar Decoded Social comments

AIRNAV info for KAAF